createdAt,value
2022-11-09T00:01:39.230Z,81.51
2022-11-09T00:04:07.157Z,81.52
2022-11-09T00:06:34.812Z,81.58
2022-11-09T00:09:07.477Z,81.76
2022-11-09T00:11:34.398Z,81.74
2022-11-09T00:14:00.767Z,81.80
2022-11-09T00:16:27.203Z,82.14
2022-11-09T00:18:55.897Z,82.08
2022-11-09T00:21:24.295Z,82.30
2022-11-09T00:23:51.134Z,82.38
2022-11-09T00:26:18.951Z,82.45
2022-11-09T00:28:45.710Z,82.44
2022-11-09T00:31:15.097Z,82.66
2022-11-09T00:33:41.712Z,82.64
2022-11-09T00:36:11.563Z,83.20
2022-11-09T00:38:40.481Z,83.12
2022-11-09T00:41:09.504Z,83.69
2022-11-09T00:43:36.237Z,83.72
2022-11-09T00:46:03.053Z,83.91
2022-11-09T00:48:30.003Z,84.00
2022-11-09T00:50:57.723Z,83.83
2022-11-09T00:53:25.479Z,84.15
2022-11-09T00:55:59.255Z,84.30
2022-11-09T00:58:27.302Z,84.53
2022-11-09T01:00:54.822Z,84.70
2022-11-09T01:03:22.292Z,84.81
2022-11-09T01:05:49.026Z,84.88
2022-11-09T01:08:17.637Z,85.04
2022-11-09T01:10:47.495Z,85.19
2022-11-09T01:13:16.752Z,84.95
2022-11-09T01:15:48.739Z,85.17
2022-11-09T01:18:16.698Z,85.39
2022-11-09T01:20:46.424Z,85.59
2022-11-09T01:23:14.455Z,85.23
2022-11-09T01:25:41.302Z,85.09
2022-11-09T01:28:10.004Z,85.14
2022-11-09T01:30:39.329Z,85.25
2022-11-09T01:33:07.744Z,85.00
2022-11-09T01:35:35.503Z,84.93
2022-11-09T01:38:03.656Z,84.77
2022-11-09T01:40:31.596Z,84.35
2022-11-09T01:42:59.426Z,84.45
2022-11-09T01:45:29.146Z,84.47
2022-11-09T01:47:58.553Z,84.22
2022-11-09T01:50:50.378Z,83.93
2022-11-09T01:53:21.399Z,83.94
2022-11-09T01:55:52.064Z,83.93
2022-11-09T01:58:24.998Z,84.06
2022-11-09T02:00:51.746Z,84.13
2022-11-09T02:03:25.312Z,84.06
2022-11-09T02:05:52.584Z,84.07
2022-11-09T02:08:23.785Z,83.69
2022-11-09T02:11:01.711Z,83.47
2022-11-09T02:13:30.366Z,83.12
2022-11-09T02:15:56.791Z,82.89
2022-11-09T02:18:23.393Z,82.62
2022-11-09T02:20:52.834Z,82.54
2022-11-09T02:23:22.600Z,82.44
2022-11-09T02:25:56.250Z,82.14
2022-11-09T02:28:24.789Z,81.94
2022-11-09T02:30:54.456Z,81.56
2022-11-09T02:33:21.515Z,81.61
2022-11-09T02:35:48.592Z,81.49
2022-11-09T02:38:15.645Z,81.30
2022-11-09T02:40:45.509Z,80.97
2022-11-09T02:43:13.665Z,81.01
2022-11-09T02:45:40.217Z,80.99
2022-11-09T02:48:06.957Z,81.06
2022-11-09T02:50:37.077Z,80.91
2022-11-09T02:53:05.369Z,80.92
2022-11-09T02:55:34.580Z,80.89
2022-11-09T02:58:01.697Z,80.78
2022-11-09T03:00:29.587Z,80.72
2022-11-09T03:02:56.697Z,80.68
2022-11-09T03:05:23.143Z,80.54
2022-11-09T03:07:49.699Z,80.69
2022-11-09T03:10:16.439Z,80.54
2022-11-09T03:12:43.015Z,80.58
2022-11-09T03:15:13.482Z,80.48
2022-11-09T03:17:43.798Z,80.45
2022-11-09T03:20:11.135Z,80.48
2022-11-09T03:22:39.196Z,80.37
2022-11-09T03:25:06.331Z,80.26
2022-11-09T03:27:32.991Z,80.28
2022-11-09T03:30:00.620Z,80.36
2022-11-09T03:32:27.228Z,80.14
2022-11-09T03:34:53.731Z,80.34
2022-11-09T03:37:20.298Z,80.34
2022-11-09T03:39:46.758Z,80.08
2022-11-09T03:42:13.154Z,79.99
2022-11-09T03:44:39.813Z,80.37
2022-11-09T03:47:06.214Z,80.14
2022-11-09T03:49:32.621Z,79.93
2022-11-09T03:51:59.073Z,79.82
2022-11-09T03:54:25.445Z,80.02
2022-11-09T03:56:51.862Z,80.13
2022-11-09T03:59:19.028Z,79.75
2022-11-09T04:01:45.504Z,79.95
2022-11-09T04:04:11.937Z,79.86
2022-11-09T04:06:38.388Z,79.60
2022-11-09T04:09:04.836Z,80.03
2022-11-09T04:11:31.248Z,79.92
2022-11-09T04:13:57.623Z,79.92
2022-11-09T04:16:24.049Z,79.97
2022-11-09T04:18:50.422Z,79.86
2022-11-09T04:21:21.443Z,80.09
2022-11-09T04:23:50.151Z,80.14
2022-11-09T04:26:16.691Z,80.06
2022-11-09T04:28:43.052Z,80.09
2022-11-09T04:31:09.436Z,80.22
2022-11-09T04:33:35.892Z,80.12
2022-11-09T04:36:04.305Z,80.03
2022-11-09T04:38:30.987Z,80.11
2022-11-09T04:41:00.882Z,80.87
2022-11-09T04:43:27.542Z,81.51
2022-11-09T04:45:54.040Z,82.67
2022-11-09T04:48:20.505Z,84.50
2022-11-09T04:50:46.908Z,85.53
2022-11-09T04:53:15.369Z,86.24
2022-11-09T04:55:41.888Z,86.01
2022-11-09T04:58:08.990Z,86.35
2022-11-09T05:00:35.544Z,86.37
2022-11-09T05:03:04.015Z,86.54
2022-11-09T05:05:33.092Z,86.87
2022-11-09T05:07:59.508Z,86.84
2022-11-09T05:10:25.891Z,87.02
2022-11-09T05:13:00.678Z,87.19
2022-11-09T05:15:27.584Z,87.52
2022-11-09T05:17:54.261Z,86.63
2022-11-09T05:20:20.990Z,86.51
2022-11-09T05:23:05.996Z,86.83
2022-11-09T05:25:32.375Z,86.71
2022-11-09T05:27:58.888Z,86.11
2022-11-09T05:30:25.337Z,86.26
2022-11-09T05:32:52.016Z,86.22
2022-11-09T05:35:18.462Z,86.05
2022-11-09T05:37:49.056Z,85.92
2022-11-09T05:40:17.583Z,85.70
2022-11-09T05:42:44.362Z,85.42
2022-11-09T05:48:03.695Z,85.61
2022-11-09T05:50:30.097Z,85.71
2022-11-09T05:53:11.015Z,86.23
2022-11-09T05:55:37.860Z,86.44
2022-11-09T05:58:05.508Z,86.76
2022-11-09T06:00:32.080Z,86.58
2022-11-09T06:03:06.164Z,86.68
2022-11-09T06:05:34.154Z,86.88
2022-11-09T06:08:08.780Z,86.90
2022-11-09T06:10:35.367Z,86.81
2022-11-09T06:13:02.197Z,86.99
2022-11-09T06:15:28.791Z,87.07
2022-11-09T06:17:56.626Z,87.39
2022-11-09T06:20:24.426Z,87.45
2022-11-09T06:23:03.110Z,87.59
2022-11-09T06:25:31.802Z,87.90
2022-11-09T06:27:58.373Z,88.25
2022-11-09T06:30:24.972Z,88.23
2022-11-09T06:32:51.336Z,88.00
2022-11-09T06:35:17.996Z,88.45
2022-11-09T06:37:44.418Z,88.79
2022-11-09T06:40:12.517Z,88.45
2022-11-09T06:42:39.025Z,88.46
2022-11-09T06:45:05.803Z,88.71
2022-11-09T06:47:32.214Z,88.72
2022-11-09T06:49:58.623Z,88.66
2022-11-09T06:52:25.935Z,88.75
2022-11-09T06:54:52.323Z,88.91
2022-11-09T06:57:18.702Z,88.81
2022-11-09T06:59:45.075Z,89.23
2022-11-09T07:02:16.915Z,89.33
2022-11-09T07:04:43.529Z,89.45
2022-11-09T07:07:09.966Z,89.60
2022-11-09T07:09:36.465Z,89.51
2022-11-09T07:12:04.034Z,89.56
2022-11-09T07:14:30.427Z,89.68
2022-11-09T07:16:56.912Z,89.72
2022-11-09T07:19:23.344Z,89.44
2022-11-09T07:21:49.740Z,89.67
2022-11-09T07:24:16.139Z,89.71
2022-11-09T07:26:42.495Z,89.58
2022-11-09T07:29:09.069Z,89.42
2022-11-09T07:31:35.428Z,89.34
2022-11-09T07:34:04.963Z,89.46
2022-11-09T07:36:32.398Z,89.50
2022-11-09T07:38:58.967Z,89.34
2022-11-09T07:41:27.408Z,89.23
2022-11-09T07:43:57.947Z,89.23
2022-11-09T07:46:24.544Z,89.29
2022-11-09T07:48:50.982Z,89.03
2022-11-09T07:51:17.360Z,89.40
2022-11-09T07:53:43.743Z,89.27
2022-11-09T07:56:10.168Z,89.25
2022-11-09T07:58:36.836Z,88.98
2022-11-09T08:01:08.417Z,88.94
2022-11-09T08:03:34.954Z,88.76
2022-11-09T08:06:01.403Z,88.89
2022-11-09T08:08:27.780Z,88.83
2022-11-09T08:10:56.661Z,88.55
2022-11-09T08:13:23.333Z,88.57
2022-11-09T08:15:49.985Z,88.49
2022-11-09T08:18:22.205Z,88.52
2022-11-09T08:20:49.590Z,88.43
2022-11-09T08:23:18.462Z,87.94
2022-11-09T08:25:45.088Z,87.83
2022-11-09T08:28:14.869Z,87.52
2022-11-09T08:30:44.138Z,87.55
2022-11-09T08:33:11.341Z,87.58
2022-11-09T08:35:38.258Z,87.76
2022-11-09T08:38:05.759Z,87.91
2022-11-09T08:40:33.687Z,87.68
2022-11-09T08:43:06.112Z,87.58
2022-11-09T08:45:34.231Z,87.35
2022-11-09T08:48:02.019Z,86.50
2022-11-09T08:50:29.709Z,86.46
2022-11-09T08:52:56.805Z,86.28
2022-11-09T08:55:23.260Z,85.73
2022-11-09T08:57:49.914Z,85.25
2022-11-09T09:00:16.605Z,85.13
2022-11-09T09:02:42.976Z,85.32
2022-11-09T09:05:10.173Z,85.24
2022-11-09T09:07:36.595Z,85.44
2022-11-09T09:10:04.651Z,84.47
2022-11-09T09:12:31.364Z,84.56
2022-11-09T09:14:57.733Z,84.60
2022-11-09T09:17:24.306Z,84.49
2022-11-09T09:19:50.723Z,83.96
2022-11-09T09:22:17.533Z,83.54
2022-11-09T09:24:43.915Z,83.30
2022-11-09T09:27:10.286Z,82.68
2022-11-09T09:29:36.638Z,81.93
2022-11-09T09:32:03.596Z,82.04
2022-11-09T09:34:29.964Z,80.87
2022-11-09T09:36:56.433Z,80.80
2022-11-09T09:39:22.875Z,80.96
2022-11-09T09:41:52.280Z,80.59
2022-11-09T09:44:34.503Z,79.86
2022-11-09T09:47:31.427Z,79.12
2022-11-09T09:50:01.327Z,78.47
2022-11-09T09:53:10.645Z,78.36
2022-11-09T09:56:04.506Z,78.91
2022-11-09T09:58:34.106Z,78.99
2022-11-09T10:01:23.856Z,77.03
2022-11-09T10:03:50.911Z,77.36
2022-11-09T10:06:26.768Z,77.22
2022-11-09T10:09:05.877Z,75.95
2022-11-09T10:12:00.747Z,75.12
2022-11-09T10:14:48.981Z,74.47
2022-11-09T10:17:38.865Z,73.80
2022-11-09T10:20:16.001Z,73.22
2022-11-09T10:22:55.965Z,72.81
2022-11-09T10:25:50.259Z,73.61
2022-11-09T10:28:16.830Z,71.93
2022-11-09T10:30:43.463Z,71.72
2022-11-09T10:33:18.229Z,71.08
2022-11-09T10:36:08.004Z,70.97
2022-11-09T10:38:44.533Z,70.41
2022-11-09T10:41:34.400Z,69.68
2022-11-09T10:44:19.998Z,68.80
2022-11-09T10:47:16.784Z,68.27
2022-11-09T10:50:08.711Z,67.06
2022-11-09T10:53:08.394Z,66.91
2022-11-09T10:56:20.477Z,67.18
2022-11-09T10:59:29.120Z,66.82
2022-11-09T11:02:26.448Z,66.53
2022-11-09T11:05:17.813Z,66.35
2022-11-09T11:08:25.587Z,65.94
2022-11-09T11:11:35.352Z,65.22
2022-11-09T11:14:36.313Z,63.65
2022-11-09T11:17:26.762Z,62.55
2022-11-09T11:20:33.463Z,61.28
2022-11-09T11:23:21.757Z,61.68
2022-11-09T11:26:19.201Z,63.07
2022-11-09T11:29:50.945Z,59.32
2022-11-09T11:32:36.122Z,58.24
2022-11-09T11:35:35.850Z,56.72
2022-11-09T11:38:39.146Z,56.79
2022-11-09T11:41:46.476Z,55.46
2022-11-09T11:45:07.338Z,54.37
2022-11-09T11:48:13.245Z,53.45
2022-11-09T11:51:36.122Z,53.58
2022-11-09T11:54:32.762Z,53.13
2022-11-09T11:57:44.163Z,53.52
2022-11-09T12:00:35.649Z,53.84
2022-11-09T12:03:41.236Z,53.52
2022-11-09T12:06:54.587Z,52.87
2022-11-09T12:09:51.933Z,54.07
2022-11-09T12:13:02.090Z,53.65
2022-11-09T12:16:39.734Z,52.71
2022-11-09T12:19:45.364Z,53.58
2022-11-09T12:22:54.921Z,52.50
2022-11-09T12:25:55.033Z,53.41
2022-11-09T12:29:04.764Z,53.93
2022-11-09T12:31:52.783Z,54.90
2022-11-09T12:34:44.108Z,55.96
2022-11-09T12:37:35.341Z,56.83
2022-11-09T12:40:20.301Z,57.18
2022-11-09T12:43:21.448Z,58.12
2022-11-09T12:46:09.748Z,59.39
2022-11-09T12:48:59.296Z,59.02
2022-11-09T12:51:44.815Z,59.89
2022-11-09T12:54:30.068Z,59.38
2022-11-09T12:57:22.238Z,59.67
2022-11-09T13:00:08.049Z,59.96
2022-11-09T13:02:59.635Z,58.56
2022-11-09T13:05:47.478Z,59.01
2022-11-09T13:08:32.728Z,58.51
2022-11-09T13:11:17.897Z,59.00
2022-11-09T13:14:21.586Z,58.43
2022-11-09T13:17:24.904Z,58.24
2022-11-09T13:20:58.140Z,58.44
2022-11-09T13:23:59.906Z,58.86
2022-11-09T13:26:48.586Z,58.19
2022-11-09T13:29:39.588Z,58.59
2022-11-09T13:32:28.005Z,58.25
2022-11-09T13:35:40.866Z,59.30
2022-11-09T13:38:28.803Z,58.95
2022-11-09T13:41:29.224Z,59.71
2022-11-09T13:44:35.995Z,60.38
2022-11-09T13:47:36.486Z,60.97
2022-11-09T13:50:27.228Z,60.72
2022-11-09T13:53:38.829Z,60.60
2022-11-09T13:56:29.970Z,60.94
2022-11-09T13:59:25.369Z,61.81
2022-11-09T14:02:19.848Z,61.91
2022-11-09T14:05:05.031Z,62.03
2022-11-09T14:07:50.268Z,62.62
2022-11-09T14:10:49.262Z,63.48
2022-11-09T14:13:37.202Z,63.34
2022-11-09T14:16:25.890Z,63.55
2022-11-09T14:19:27.654Z,64.70
2022-11-09T14:22:18.547Z,63.80
2022-11-09T14:25:18.070Z,64.28
2022-11-09T14:28:18.923Z,64.35
2022-11-09T14:31:04.053Z,64.26
2022-11-09T14:34:00.414Z,64.63
2022-11-09T14:36:45.488Z,64.70
2022-11-09T14:39:37.135Z,64.74
2022-11-09T14:42:23.513Z,65.04
2022-11-09T14:45:15.310Z,65.33
2022-11-09T14:48:00.511Z,65.41
2022-11-09T14:50:46.040Z,65.77
2022-11-09T14:53:36.796Z,65.57
2022-11-09T14:56:23.236Z,65.88
2022-11-09T14:59:14.210Z,65.74
2022-11-09T15:02:17.534Z,66.33
2022-11-09T15:05:05.225Z,66.05
2022-11-09T15:07:50.323Z,66.01
2022-11-09T15:10:36.277Z,66.15
2022-11-09T15:13:34.250Z,65.97
2022-11-09T15:16:26.150Z,66.54
2022-11-09T15:19:37.563Z,67.00
2022-11-09T15:22:50.124Z,67.99
2022-11-09T15:25:52.394Z,68.44
2022-11-09T15:28:45.818Z,68.67
2022-11-09T15:31:30.939Z,69.07
2022-11-09T15:34:24.493Z,69.53
2022-11-09T15:37:50.414Z,70.11
2022-11-09T15:40:35.507Z,70.39
2022-11-09T15:43:20.819Z,71.01
2022-11-09T15:46:06.542Z,71.22
2022-11-09T15:48:51.734Z,71.04
2022-11-09T15:51:36.855Z,71.25
2022-11-09T15:54:23.598Z,71.69
2022-11-09T15:57:14.675Z,71.98
2022-11-09T16:00:01.451Z,71.89
2022-11-09T16:02:46.596Z,72.63
2022-11-09T16:05:32.734Z,73.34
2022-11-09T16:08:18.326Z,73.72
2022-11-09T16:11:05.653Z,73.99
2022-11-09T16:13:50.970Z,74.14
2022-11-09T16:16:35.943Z,74.84
2022-11-09T16:19:21.023Z,74.97
2022-11-09T16:22:08.356Z,75.03
2022-11-09T16:24:53.333Z,75.50
2022-11-09T16:27:54.253Z,75.23
2022-11-09T16:30:44.069Z,75.34
2022-11-09T16:33:31.333Z,75.90
2022-11-09T16:36:20.517Z,76.13
2022-11-09T16:39:12.455Z,76.00
2022-11-09T16:42:01.781Z,76.65
2022-11-09T16:44:49.250Z,76.74
2022-11-09T16:47:38.757Z,76.99
2022-11-09T16:50:24.510Z,77.62
2022-11-09T16:53:09.574Z,78.65
2022-11-09T16:55:55.121Z,78.93
2022-11-09T16:58:40.091Z,78.71
2022-11-09T17:01:25.127Z,79.38
2022-11-09T17:04:10.530Z,78.92
2022-11-09T17:06:55.449Z,78.99
2022-11-09T17:09:40.184Z,78.81
2022-11-09T17:12:25.309Z,78.69
2022-11-09T17:15:10.710Z,78.63
2022-11-09T17:17:55.701Z,78.58
2022-11-09T17:20:44.902Z,78.74
2022-11-09T17:23:31.421Z,78.38
2022-11-09T17:26:17.107Z,78.10
2022-11-09T17:29:02.172Z,77.93
2022-11-09T17:31:47.138Z,77.43
2022-11-09T17:34:32.054Z,77.38
2022-11-09T17:37:17.192Z,77.07
2022-11-09T17:40:02.579Z,76.47
2022-11-09T17:42:47.651Z,76.01
2022-11-09T17:45:34.728Z,75.93
2022-11-09T17:48:20.167Z,75.84
2022-11-09T17:51:06.552Z,76.05
2022-11-09T17:53:51.722Z,75.97
2022-11-09T17:56:36.754Z,76.19
2022-11-09T17:59:21.456Z,76.32
2022-11-09T18:02:06.684Z,76.56
2022-11-09T18:04:51.855Z,76.44
2022-11-09T18:07:36.925Z,76.40
2022-11-09T18:10:21.852Z,77.08
2022-11-09T18:13:07.174Z,77.21
2022-11-09T18:15:52.499Z,77.28
2022-11-09T18:18:37.808Z,77.42
2022-11-09T18:21:24.767Z,77.71
2022-11-09T18:24:10.080Z,77.82
2022-11-09T18:26:55.389Z,78.08
2022-11-09T18:29:41.413Z,78.54
2022-11-09T18:32:26.354Z,78.32
2022-11-09T18:35:11.408Z,78.77
2022-11-09T18:37:56.718Z,79.02
2022-11-09T18:40:41.712Z,79.21
2022-11-09T18:43:27.144Z,79.34
2022-11-09T18:46:15.030Z,79.63
2022-11-09T18:49:00.316Z,79.71
2022-11-09T18:51:45.188Z,79.95
2022-11-09T18:54:31.475Z,79.96
2022-11-09T18:57:19.875Z,80.02
2022-11-09T19:00:06.085Z,79.92
2022-11-09T19:02:50.895Z,80.29
2022-11-09T19:05:39.535Z,80.28
2022-11-09T19:08:44.129Z,80.19
2022-11-09T19:11:30.089Z,80.32
2022-11-09T19:14:15.154Z,80.26
2022-11-09T19:17:00.339Z,80.34
2022-11-09T19:19:45.339Z,80.56
2022-11-09T19:22:30.308Z,80.42
2022-11-09T19:25:15.506Z,80.42
2022-11-09T19:28:00.655Z,80.53
2022-11-09T19:30:45.969Z,80.83
2022-11-09T19:33:31.305Z,80.65
2022-11-09T19:36:29.681Z,80.69
2022-11-09T19:39:16.347Z,81.22
2022-11-09T19:42:01.467Z,81.27
2022-11-09T19:44:46.277Z,81.38
2022-11-09T19:47:30.992Z,81.34
2022-11-09T19:50:16.302Z,81.64
2022-11-09T19:53:01.101Z,82.06
2022-11-09T19:55:45.967Z,82.08
2022-11-09T19:58:31.698Z,82.54
2022-11-09T20:01:18.121Z,82.75
2022-11-09T20:04:09.069Z,82.89
2022-11-09T20:06:55.457Z,82.72
2022-11-09T20:09:40.111Z,82.84
2022-11-09T20:12:43.727Z,82.90
2022-11-09T20:15:28.882Z,83.12
2022-11-09T20:18:14.762Z,83.11
2022-11-09T20:20:59.902Z,83.14
2022-11-09T20:23:45.111Z,83.21
2022-11-09T20:26:30.152Z,83.62
2022-11-09T20:29:15.469Z,83.63
2022-11-09T20:32:00.579Z,83.51
2022-11-09T20:34:46.572Z,83.85
2022-11-09T20:37:31.346Z,83.75
2022-11-09T20:40:16.521Z,83.83
2022-11-09T20:43:01.707Z,83.95
2022-11-09T20:45:46.535Z,84.29
2022-11-09T20:48:52.874Z,84.50
2022-11-09T20:51:37.306Z,84.48
2022-11-09T20:54:22.642Z,84.78
2022-11-09T20:57:07.559Z,84.68
2022-11-09T20:59:52.473Z,85.06
2022-11-09T21:02:37.386Z,85.19
2022-11-09T21:05:22.398Z,85.44
2022-11-09T21:08:07.199Z,85.61
2022-11-09T21:10:52.118Z,85.77
2022-11-09T21:13:37.223Z,85.61
2022-11-09T21:16:23.469Z,86.15
2022-11-09T21:19:08.654Z,86.21
2022-11-09T21:21:53.668Z,86.32
2022-11-09T21:24:57.435Z,86.83
2022-11-09T21:28:01.321Z,86.87
2022-11-09T21:30:46.564Z,87.28
2022-11-09T21:33:31.583Z,87.30
2022-11-09T21:36:16.805Z,87.29
2022-11-09T21:39:02.681Z,87.47
2022-11-09T21:41:48.407Z,87.43
2022-11-09T21:44:34.612Z,87.54
2022-11-09T21:47:19.631Z,87.59
2022-11-09T21:50:11.147Z,87.78
2022-11-09T21:52:57.343Z,87.63
2022-11-09T21:55:42.463Z,87.58
2022-11-09T21:58:27.395Z,88.00
2022-11-09T22:01:12.504Z,88.11
2022-11-09T22:03:57.495Z,88.09
2022-11-09T22:06:43.350Z,88.32
2022-11-09T22:09:35.835Z,88.25
2022-11-09T22:12:48.646Z,88.03
2022-11-09T22:15:52.477Z,88.58
2022-11-09T22:18:56.445Z,88.90
2022-11-09T22:21:44.519Z,88.75
2022-11-09T22:24:29.499Z,88.60
2022-11-09T22:27:14.378Z,88.67
2022-11-09T22:29:59.568Z,88.81
2022-11-09T22:32:44.744Z,88.63
2022-11-09T22:35:29.560Z,89.20
2022-11-09T22:38:14.439Z,89.36
2022-11-09T22:41:04.949Z,89.52
2022-11-09T22:43:50.391Z,89.60
2022-11-09T22:46:35.676Z,89.45
2022-11-09T22:49:20.843Z,90.01
2022-11-09T22:52:06.099Z,90.00
2022-11-09T22:54:51.143Z,90.63
2022-11-09T22:57:37.798Z,90.96
2022-11-09T23:00:23.422Z,91.05
2022-11-09T23:03:08.361Z,91.00
2022-11-09T23:05:53.279Z,91.19
2022-11-09T23:08:39.060Z,91.24
2022-11-09T23:11:24.945Z,91.44
2022-11-09T23:14:09.885Z,91.52
2022-11-09T23:16:55.071Z,91.81
2022-11-09T23:19:40.104Z,91.94
2022-11-09T23:22:24.910Z,91.88
2022-11-09T23:25:30.224Z,92.04
2022-11-09T23:28:15.756Z,92.01
2022-11-09T23:31:05.975Z,92.23
2022-11-09T23:33:54.189Z,92.20
2022-11-09T23:36:39.293Z,91.96
2022-11-09T23:39:24.134Z,92.16
2022-11-09T23:42:08.946Z,92.28
2022-11-09T23:44:53.986Z,92.23
2022-11-09T23:47:38.992Z,92.11
2022-11-09T23:50:23.918Z,92.10
2022-11-09T23:53:10.802Z,92.29
2022-11-09T23:56:03.161Z,92.34
2022-11-09T23:58:51.530Z,92.32
